sensor_id;sensor_type;location;lat;lon;timestamp;temperature;humidity
52305;DHT22;38248;52.722;6.734;2022-08-04T00:00:14;19.30;99.90
52305;DHT22;38248;52.722;6.734;2022-08-04T00:11:02;19.20;99.90
52305;DHT22;38248;52.722;6.734;2022-08-04T00:13:31;19.20;99.90
52305;DHT22;38248;52.722;6.734;2022-08-04T00:16:09;19.10;99.90
52305;DHT22;38248;52.722;6.734;2022-08-04T00:18:39;19.10;99.90
52305;DHT22;38248;52.722;6.734;2022-08-04T00:21:06;19.10;99.90
52305;DHT22;38248;52.722;6.734;2022-08-04T00:23:35;19.10;99.90
52305;DHT22;38248;52.722;6.734;2022-08-04T00:26:02;19.10;99.90
52305;DHT22;38248;52.722;6.734;2022-08-04T00:28:31;19.00;99.90
52305;DHT22;38248;52.722;6.734;2022-08-04T00:30:56;19.00;99.90
52305;DHT22;38248;52.722;6.734;2022-08-04T00:33:22;19.00;99.90
52305;DHT22;38248;52.722;6.734;2022-08-04T00:35:49;19.00;99.90
52305;DHT22;38248;52.722;6.734;2022-08-04T00:38:16;19.00;99.90
52305;DHT22;38248;52.722;6.734;2022-08-04T00:43:33;18.90;99.90
52305;DHT22;38248;52.722;6.734;2022-08-04T01:00:14;18.70;99.90
52305;DHT22;38248;52.722;6.734;2022-08-04T01:03:08;18.70;99.90
52305;DHT22;38248;52.722;6.734;2022-08-04T01:08:28;18.80;99.90
52305;DHT22;38248;52.722;6.734;2022-08-04T01:14:04;18.60;99.90
52305;DHT22;38248;52.722;6.734;2022-08-04T01:16:34;18.60;99.90
52305;DHT22;38248;52.722;6.734;2022-08-04T01:22:13;18.50;99.90
52305;DHT22;38248;52.722;6.734;2022-08-04T01:30:22;18.50;99.90
52305;DHT22;38248;52.722;6.734;2022-08-04T01:33:04;18.50;99.90
52305;DHT22;38248;52.722;6.734;2022-08-04T01:35:47;18.50;99.90
52305;DHT22;38248;52.722;6.734;2022-08-04T01:38:27;18.40;99.90
52305;DHT22;38248;52.722;6.734;2022-08-04T01:40:58;18.40;99.90
52305;DHT22;38248;52.722;6.734;2022-08-04T01:43:27;18.40;99.90
52305;DHT22;38248;52.722;6.734;2022-08-04T01:45:57;18.40;99.90
52305;DHT22;38248;52.722;6.734;2022-08-04T01:48:24;18.30;99.90
52305;DHT22;38248;52.722;6.734;2022-08-04T01:50:57;18.40;99.90
52305;DHT22;38248;52.722;6.734;2022-08-04T01:53:29;18.30;99.90
52305;DHT22;38248;52.722;6.734;2022-08-04T01:55:56;18.30;99.90
52305;DHT22;38248;52.722;6.734;2022-08-04T01:58:23;18.30;99.90
52305;DHT22;38248;52.722;6.734;2022-08-04T02:01:08;18.20;99.90
52305;DHT22;38248;52.722;6.734;2022-08-04T02:03:35;18.20;99.90
52305;DHT22;38248;52.722;6.734;2022-08-04T02:09:20;18.20;99.90
52305;DHT22;38248;52.722;6.734;2022-08-04T02:15:02;18.20;99.90
52305;DHT22;38248;52.722;6.734;2022-08-04T02:17:31;18.20;99.90
52305;DHT22;38248;52.722;6.734;2022-08-04T02:20:21;18.20;99.90
52305;DHT22;38248;52.722;6.734;2022-08-04T02:22:57;18.20;99.90
52305;DHT22;38248;52.722;6.734;2022-08-04T02:25:25;18.30;99.90
52305;DHT22;38248;52.722;6.734;2022-08-04T02:31:26;18.30;99.90
52305;DHT22;38248;52.722;6.734;2022-08-04T02:36:42;18.30;99.90
52305;DHT22;38248;52.722;6.734;2022-08-04T02:39:10;18.30;99.90
52305;DHT22;38248;52.722;6.734;2022-08-04T02:41:37;18.40;99.90
52305;DHT22;38248;52.722;6.734;2022-08-04T02:44:06;18.40;99.90
52305;DHT22;38248;52.722;6.734;2022-08-04T02:46:34;18.40;99.90
52305;DHT22;38248;52.722;6.734;2022-08-04T02:49:06;18.40;99.90
52305;DHT22;38248;52.722;6.734;2022-08-04T02:51:56;18.40;99.90
52305;DHT22;38248;52.722;6.734;2022-08-04T02:54:24;18.40;99.90
52305;DHT22;38248;52.722;6.734;2022-08-04T02:56:53;18.40;99.90
52305;DHT22;38248;52.722;6.734;2022-08-04T02:59:24;18.30;99.90
52305;DHT22;38248;52.722;6.734;2022-08-04T03:01:50;18.40;99.90
52305;DHT22;38248;52.722;6.734;2022-08-04T03:16:08;18.30;99.90
52305;DHT22;38248;52.722;6.734;2022-08-04T03:27:45;18.30;99.90
52305;DHT22;38248;52.722;6.734;2022-08-04T03:30:23;18.30;99.90
52305;DHT22;38248;52.722;6.734;2022-08-04T03:33:12;18.30;99.90
52305;DHT22;38248;52.722;6.734;2022-08-04T03:36:21;18.30;99.90
52305;DHT22;38248;52.722;6.734;2022-08-04T03:55:40;18.10;99.90
52305;DHT22;38248;52.722;6.734;2022-08-04T04:06:40;18.10;99.90
52305;DHT22;38248;52.722;6.734;2022-08-04T04:12:15;18.10;99.90
52305;DHT22;38248;52.722;6.734;2022-08-04T04:15:02;18.10;99.90
52305;DHT22;38248;52.722;6.734;2022-08-04T04:18:08;18.10;99.90
52305;DHT22;38248;52.722;6.734;2022-08-04T04:29:32;18.20;99.90
52305;DHT22;38248;52.722;6.734;2022-08-04T04:32:27;18.20;99.90
52305;DHT22;38248;52.722;6.734;2022-08-04T04:35:10;18.20;99.90
52305;DHT22;38248;52.722;6.734;2022-08-04T04:40:33;18.30;99.90
52305;DHT22;38248;52.722;6.734;2022-08-04T04:54:13;18.50;99.90
52305;DHT22;38248;52.722;6.734;2022-08-04T04:57:20;18.60;99.90
52305;DHT22;38248;52.722;6.734;2022-08-04T04:59:56;18.70;99.90
52305;DHT22;38248;52.722;6.734;2022-08-04T05:08:12;18.90;99.90
52305;DHT22;38248;52.722;6.734;2022-08-04T05:11:13;19.00;99.90
52305;DHT22;38248;52.722;6.734;2022-08-04T05:13:47;19.10;99.90
52305;DHT22;38248;52.722;6.734;2022-08-04T05:16:23;19.10;99.90
52305;DHT22;38248;52.722;6.734;2022-08-04T05:19:02;19.20;99.90
52305;DHT22;38248;52.722;6.734;2022-08-04T05:21:56;19.30;99.90
52305;DHT22;38248;52.722;6.734;2022-08-04T05:24:26;19.40;99.90
52305;DHT22;38248;52.722;6.734;2022-08-04T05:26:55;19.40;99.90
52305;DHT22;38248;52.722;6.734;2022-08-04T05:29:32;19.50;99.90
52305;DHT22;38248;52.722;6.734;2022-08-04T05:32:03;19.60;99.90
52305;DHT22;38248;52.722;6.734;2022-08-04T05:34:38;19.60;99.90
52305;DHT22;38248;52.722;6.734;2022-08-04T05:37:09;19.70;99.90
52305;DHT22;38248;52.722;6.734;2022-08-04T05:39:40;19.70;99.90
52305;DHT22;38248;52.722;6.734;2022-08-04T05:42:07;19.70;99.90
52305;DHT22;38248;52.722;6.734;2022-08-04T05:44:34;19.70;99.90
52305;DHT22;38248;52.722;6.734;2022-08-04T05:47:02;19.80;99.90
52305;DHT22;38248;52.722;6.734;2022-08-04T05:49:28;19.80;99.90
52305;DHT22;38248;52.722;6.734;2022-08-04T05:52:00;19.90;99.90
52305;DHT22;38248;52.722;6.734;2022-08-04T05:54:27;20.00;99.90
52305;DHT22;38248;52.722;6.734;2022-08-04T05:56:53;20.10;99.90
52305;DHT22;38248;52.722;6.734;2022-08-04T05:59:21;20.10;99.90
52305;DHT22;38248;52.722;6.734;2022-08-04T06:01:50;20.20;99.90
52305;DHT22;38248;52.722;6.734;2022-08-04T06:04:17;20.20;99.90
52305;DHT22;38248;52.722;6.734;2022-08-04T06:06:45;20.20;99.90
52305;DHT22;38248;52.722;6.734;2022-08-04T06:09:11;20.20;99.90
52305;DHT22;38248;52.722;6.734;2022-08-04T06:11:38;20.30;99.90
52305;DHT22;38248;52.722;6.734;2022-08-04T06:14:06;20.30;99.90
52305;DHT22;38248;52.722;6.734;2022-08-04T06:16:40;20.30;99.90
52305;DHT22;38248;52.722;6.734;2022-08-04T06:19:11;20.30;99.90
52305;DHT22;38248;52.722;6.734;2022-08-04T06:21:40;20.40;99.90
52305;DHT22;38248;52.722;6.734;2022-08-04T06:24:10;20.50;99.90
52305;DHT22;38248;52.722;6.734;2022-08-04T06:26:37;20.50;99.90
52305;DHT22;38248;52.722;6.734;2022-08-04T06:29:05;20.50;99.90
52305;DHT22;38248;52.722;6.734;2022-08-04T06:31:35;20.60;99.90
52305;DHT22;38248;52.722;6.734;2022-08-04T06:34:13;20.60;99.90
52305;DHT22;38248;52.722;6.734;2022-08-04T06:36:39;20.70;99.90
52305;DHT22;38248;52.722;6.734;2022-08-04T06:39:06;20.80;99.90
52305;DHT22;38248;52.722;6.734;2022-08-04T06:41:33;21.00;99.90
52305;DHT22;38248;52.722;6.734;2022-08-04T06:44:02;21.00;99.90
52305;DHT22;38248;52.722;6.734;2022-08-04T06:46:33;21.10;99.90
52305;DHT22;38248;52.722;6.734;2022-08-04T06:49:00;21.20;99.90
52305;DHT22;38248;52.722;6.734;2022-08-04T06:51:30;21.30;99.90
52305;DHT22;38248;52.722;6.734;2022-08-04T06:53:56;21.40;99.90
52305;DHT22;38248;52.722;6.734;2022-08-04T06:56:21;21.40;99.90
52305;DHT22;38248;52.722;6.734;2022-08-04T06:58:50;21.50;99.90
52305;DHT22;38248;52.722;6.734;2022-08-04T07:01:18;21.60;99.90
52305;DHT22;38248;52.722;6.734;2022-08-04T07:03:45;21.70;99.90
52305;DHT22;38248;52.722;6.734;2022-08-04T07:06:11;21.80;99.90
52305;DHT22;38248;52.722;6.734;2022-08-04T07:08:38;21.90;99.90
52305;DHT22;38248;52.722;6.734;2022-08-04T07:11:04;22.00;99.90
52305;DHT22;38248;52.722;6.734;2022-08-04T07:13:30;22.00;99.90
52305;DHT22;38248;52.722;6.734;2022-08-04T07:15:57;22.10;99.90
52305;DHT22;38248;52.722;6.734;2022-08-04T07:18:23;22.10;99.90
52305;DHT22;38248;52.722;6.734;2022-08-04T07:20:49;22.20;99.90
52305;DHT22;38248;52.722;6.734;2022-08-04T07:23:16;22.30;99.90
52305;DHT22;38248;52.722;6.734;2022-08-04T07:25:52;22.30;99.90
52305;DHT22;38248;52.722;6.734;2022-08-04T07:28:18;22.40;99.90
52305;DHT22;38248;52.722;6.734;2022-08-04T07:30:46;22.50;99.90
52305;DHT22;38248;52.722;6.734;2022-08-04T07:33:16;22.60;99.90
52305;DHT22;38248;52.722;6.734;2022-08-04T07:35:43;22.70;99.90
52305;DHT22;38248;52.722;6.734;2022-08-04T07:38:09;22.80;99.90
52305;DHT22;38248;52.722;6.734;2022-08-04T07:40:36;23.00;99.90
52305;DHT22;38248;52.722;6.734;2022-08-04T07:43:03;23.00;99.90
52305;DHT22;38248;52.722;6.734;2022-08-04T07:45:29;23.10;99.90
52305;DHT22;38248;52.722;6.734;2022-08-04T07:47:55;23.20;99.90
52305;DHT22;38248;52.722;6.734;2022-08-04T07:50:22;23.30;99.90
52305;DHT22;38248;52.722;6.734;2022-08-04T07:52:48;23.30;99.90
52305;DHT22;38248;52.722;6.734;2022-08-04T07:55:14;23.40;99.90
52305;DHT22;38248;52.722;6.734;2022-08-04T07:57:40;23.50;99.90
52305;DHT22;38248;52.722;6.734;2022-08-04T08:00:07;23.60;99.90
52305;DHT22;38248;52.722;6.734;2022-08-04T08:02:34;23.80;99.90
52305;DHT22;38248;52.722;6.734;2022-08-04T08:05:01;23.80;99.90
52305;DHT22;38248;52.722;6.734;2022-08-04T08:07:27;24.00;99.90
52305;DHT22;38248;52.722;6.734;2022-08-04T08:09:52;24.10;99.90
52305;DHT22;38248;52.722;6.734;2022-08-04T08:12:19;24.20;99.90
52305;DHT22;38248;52.722;6.734;2022-08-04T08:14:45;24.20;99.90
52305;DHT22;38248;52.722;6.734;2022-08-04T08:17:11;24.30;99.90
52305;DHT22;38248;52.722;6.734;2022-08-04T08:19:37;24.30;99.90
52305;DHT22;38248;52.722;6.734;2022-08-04T08:22:03;24.40;99.90
52305;DHT22;38248;52.722;6.734;2022-08-04T08:24:31;24.50;99.90
52305;DHT22;38248;52.722;6.734;2022-08-04T08:27:00;24.60;99.90
52305;DHT22;38248;52.722;6.734;2022-08-04T08:29:28;24.70;99.90
52305;DHT22;38248;52.722;6.734;2022-08-04T08:31:55;24.80;99.90
52305;DHT22;38248;52.722;6.734;2022-08-04T08:34:21;25.00;99.90
52305;DHT22;38248;52.722;6.734;2022-08-04T08:39:35;25.40;99.90
52305;DHT22;38248;52.722;6.734;2022-08-04T08:42:35;25.70;99.90
52305;DHT22;38248;52.722;6.734;2022-08-04T09:07:27;27.10;99.90
52305;DHT22;38248;52.722;6.734;2022-08-04T09:10:19;27.10;99.90
52305;DHT22;38248;52.722;6.734;2022-08-04T09:13:01;27.20;99.50
52305;DHT22;38248;52.722;6.734;2022-08-04T09:18:47;27.40;99.50
52305;DHT22;38248;52.722;6.734;2022-08-04T09:21:32;27.50;99.10
52305;DHT22;38248;52.722;6.734;2022-08-04T09:26:59;27.60;97.80
52305;DHT22;38248;52.722;6.734;2022-08-04T09:35:21;28.10;97.30
52305;DHT22;38248;52.722;6.734;2022-08-04T09:38:22;28.10;95.50
52305;DHT22;38248;52.722;6.734;2022-08-04T09:43:52;28.30;93.90
52305;DHT22;38248;52.722;6.734;2022-08-04T09:46:34;28.50;93.00
52305;DHT22;38248;52.722;6.734;2022-08-04T09:49:08;28.60;93.30
52305;DHT22;38248;52.722;6.734;2022-08-04T09:51:58;28.80;93.00
52305;DHT22;38248;52.722;6.734;2022-08-04T09:57:27;29.10;92.00
52305;DHT22;38248;52.722;6.734;2022-08-04T10:00:12;29.20;92.00
52305;DHT22;38248;52.722;6.734;2022-08-04T10:02:44;29.30;92.50
52305;DHT22;38248;52.722;6.734;2022-08-04T10:05:17;29.30;92.00
52305;DHT22;38248;52.722;6.734;2022-08-04T10:08:01;29.30;92.00
52305;DHT22;38248;52.722;6.734;2022-08-04T10:10:39;29.20;91.40
52305;DHT22;38248;52.722;6.734;2022-08-04T10:21:18;28.90;91.70
52305;DHT22;38248;52.722;6.734;2022-08-04T10:24:10;28.90;92.20
52305;DHT22;38248;52.722;6.734;2022-08-04T10:26:50;28.90;92.00
52305;DHT22;38248;52.722;6.734;2022-08-04T10:38:18;28.40;92.10
52305;DHT22;38248;52.722;6.734;2022-08-04T10:40:51;28.20;92.30
52305;DHT22;38248;52.722;6.734;2022-08-04T10:43:45;28.10;92.50
52305;DHT22;38248;52.722;6.734;2022-08-04T10:46:15;28.10;92.80
52305;DHT22;38248;52.722;6.734;2022-08-04T10:48:55;28.10;93.30
52305;DHT22;38248;52.722;6.734;2022-08-04T10:54:09;28.20;93.60
52305;DHT22;38248;52.722;6.734;2022-08-04T10:56:43;28.30;93.40
52305;DHT22;38248;52.722;6.734;2022-08-04T10:59:25;28.30;93.20
52305;DHT22;38248;52.722;6.734;2022-08-04T11:01:54;28.40;93.50
52305;DHT22;38248;52.722;6.734;2022-08-04T11:04:41;28.40;93.50
52305;DHT22;38248;52.722;6.734;2022-08-04T11:07:10;28.40;93.10
52305;DHT22;38248;52.722;6.734;2022-08-04T11:09:39;28.40;93.10
52305;DHT22;38248;52.722;6.734;2022-08-04T11:12:18;28.40;92.70
52305;DHT22;38248;52.722;6.734;2022-08-04T11:14:55;28.50;92.20
52305;DHT22;38248;52.722;6.734;2022-08-04T11:17:30;28.40;92.50
52305;DHT22;38248;52.722;6.734;2022-08-04T11:22:51;28.30;91.90
52305;DHT22;38248;52.722;6.734;2022-08-04T11:25:25;28.20;91.90
52305;DHT22;38248;52.722;6.734;2022-08-04T11:30:37;28.20;92.00
52305;DHT22;38248;52.722;6.734;2022-08-04T11:35:46;28.10;91.90
52305;DHT22;38248;52.722;6.734;2022-08-04T11:38:36;28.00;91.90
52305;DHT22;38248;52.722;6.734;2022-08-04T11:41:12;27.80;91.70
52305;DHT22;38248;52.722;6.734;2022-08-04T11:44:06;27.60;91.30
52305;DHT22;38248;52.722;6.734;2022-08-04T11:46:39;27.40;91.80
52305;DHT22;38248;52.722;6.734;2022-08-04T11:52:00;27.10;92.10
52305;DHT22;38248;52.722;6.734;2022-08-04T11:54:26;27.00;92.20
52305;DHT22;38248;52.722;6.734;2022-08-04T11:56:53;26.90;92.10
52305;DHT22;38248;52.722;6.734;2022-08-04T11:59:21;26.80;92.00
52305;DHT22;38248;52.722;6.734;2022-08-04T12:04:54;26.70;92.50
52305;DHT22;38248;52.722;6.734;2022-08-04T12:10:17;26.40;92.80
52305;DHT22;38248;52.722;6.734;2022-08-04T12:13:02;26.40;92.90
52305;DHT22;38248;52.722;6.734;2022-08-04T12:18:22;26.30;92.80
52305;DHT22;38248;52.722;6.734;2022-08-04T12:20:56;26.20;93.10
52305;DHT22;38248;52.722;6.734;2022-08-04T12:23:28;26.00;93.10
52305;DHT22;38248;52.722;6.734;2022-08-04T12:25:59;25.90;93.30
52305;DHT22;38248;52.722;6.734;2022-08-04T12:28:40;25.90;94.00
52305;DHT22;38248;52.722;6.734;2022-08-04T12:32:16;25.70;94.60
52305;DHT22;38248;52.722;6.734;2022-08-04T12:34:36;25.70;94.70
52305;DHT22;38248;52.722;6.734;2022-08-04T12:37:22;25.50;95.70
52305;DHT22;38248;52.722;6.734;2022-08-04T12:39:52;25.40;96.20
52305;DHT22;38248;52.722;6.734;2022-08-04T12:42:35;25.30;96.90
52305;DHT22;38248;52.722;6.734;2022-08-04T12:45:07;25.10;98.00
52305;DHT22;38248;52.722;6.734;2022-08-04T12:47:34;25.00;97.70
52305;DHT22;38248;52.722;6.734;2022-08-04T12:50:01;24.90;98.10
52305;DHT22;38248;52.722;6.734;2022-08-04T12:52:30;24.60;98.90
52305;DHT22;38248;52.722;6.734;2022-08-04T12:54:58;24.40;99.20
52305;DHT22;38248;52.722;6.734;2022-08-04T12:57:27;24.30;99.90
52305;DHT22;38248;52.722;6.734;2022-08-04T12:59:53;24.20;99.90
52305;DHT22;38248;52.722;6.734;2022-08-04T13:02:26;24.00;99.90
52305;DHT22;38248;52.722;6.734;2022-08-04T13:04:59;23.90;99.90
52305;DHT22;38248;52.722;6.734;2022-08-04T13:07:27;23.80;99.90
52305;DHT22;38248;52.722;6.734;2022-08-04T13:10:04;23.70;99.90
52305;DHT22;38248;52.722;6.734;2022-08-04T13:12:31;23.80;99.90
52305;DHT22;38248;52.722;6.734;2022-08-04T13:15:05;23.80;99.90
52305;DHT22;38248;52.722;6.734;2022-08-04T13:17:48;23.90;99.90
52305;DHT22;38248;52.722;6.734;2022-08-04T13:20:15;24.10;99.90
52305;DHT22;38248;52.722;6.734;2022-08-04T13:22:41;24.20;99.90
52305;DHT22;38248;52.722;6.734;2022-08-04T13:25:08;24.40;99.90
52305;DHT22;38248;52.722;6.734;2022-08-04T13:27:37;24.60;99.90
52305;DHT22;38248;52.722;6.734;2022-08-04T13:30:04;24.70;99.90
52305;DHT22;38248;52.722;6.734;2022-08-04T13:32:30;24.90;99.90
52305;DHT22;38248;52.722;6.734;2022-08-04T13:34:59;25.20;99.90
52305;DHT22;38248;52.722;6.734;2022-08-04T13:37:31;25.40;98.80
52305;DHT22;38248;52.722;6.734;2022-08-04T13:39:58;25.50;98.60
52305;DHT22;38248;52.722;6.734;2022-08-04T13:42:25;25.60;97.80
52305;DHT22;38248;52.722;6.734;2022-08-04T13:44:54;25.60;97.20
52305;DHT22;38248;52.722;6.734;2022-08-04T13:47:26;25.70;97.10
52305;DHT22;38248;52.722;6.734;2022-08-04T13:50:21;25.90;97.00
52305;DHT22;38248;52.722;6.734;2022-08-04T13:52:51;26.00;97.50
52305;DHT22;38248;52.722;6.734;2022-08-04T13:55:29;26.10;96.90
52305;DHT22;38248;52.722;6.734;2022-08-04T13:58:00;26.20;97.20
52305;DHT22;38248;52.722;6.734;2022-08-04T14:01:37;26.50;96.40
52305;DHT22;38248;52.722;6.734;2022-08-04T14:04:01;26.60;95.70
52305;DHT22;38248;52.722;6.734;2022-08-04T14:06:31;26.80;95.20
52305;DHT22;38248;52.722;6.734;2022-08-04T14:09:20;26.80;94.50
52305;DHT22;38248;52.722;6.734;2022-08-04T14:11:49;26.70;93.80
52305;DHT22;38248;52.722;6.734;2022-08-04T14:14:19;26.70;93.80
52305;DHT22;38248;52.722;6.734;2022-08-04T14:17:07;26.60;93.40
52305;DHT22;38248;52.722;6.734;2022-08-04T14:27:24;27.10;91.70
52305;DHT22;38248;52.722;6.734;2022-08-04T14:29:52;27.10;92.00
52305;DHT22;38248;52.722;6.734;2022-08-04T14:32:18;27.20;91.70
52305;DHT22;38248;52.722;6.734;2022-08-04T14:34:44;27.30;91.90
52305;DHT22;38248;52.722;6.734;2022-08-04T14:37:11;27.50;92.00
52305;DHT22;38248;52.722;6.734;2022-08-04T14:39:42;27.60;90.90
52305;DHT22;38248;52.722;6.734;2022-08-04T14:42:09;27.60;91.00
52305;DHT22;38248;52.722;6.734;2022-08-04T14:44:56;27.60;91.00
52305;DHT22;38248;52.722;6.734;2022-08-04T14:47:40;27.70;91.20
52305;DHT22;38248;52.722;6.734;2022-08-04T14:50:07;27.50;90.50
52305;DHT22;38248;52.722;6.734;2022-08-04T14:52:33;27.30;91.10
52305;DHT22;38248;52.722;6.734;2022-08-04T14:55:23;27.30;91.10
52305;DHT22;38248;52.722;6.734;2022-08-04T14:57:50;27.10;90.90
52305;DHT22;38248;52.722;6.734;2022-08-04T15:00:35;26.90;91.10
52305;DHT22;38248;52.722;6.734;2022-08-04T15:03:07;26.70;91.10
52305;DHT22;38248;52.722;6.734;2022-08-04T15:05:36;26.80;91.20
52305;DHT22;38248;52.722;6.734;2022-08-04T15:08:04;27.00;91.40
52305;DHT22;38248;52.722;6.734;2022-08-04T15:10:30;27.20;91.10
52305;DHT22;38248;52.722;6.734;2022-08-04T15:12:56;27.30;91.20
52305;DHT22;38248;52.722;6.734;2022-08-04T15:15:22;27.70;91.90
52305;DHT22;38248;52.722;6.734;2022-08-04T15:17:52;28.10;91.50
52305;DHT22;38248;52.722;6.734;2022-08-04T15:20:18;28.20;89.30
52305;DHT22;38248;52.722;6.734;2022-08-04T15:22:44;28.30;89.60
52305;DHT22;38248;52.722;6.734;2022-08-04T15:25:10;28.40;90.00
52305;DHT22;38248;52.722;6.734;2022-08-04T15:27:38;28.20;89.80
52305;DHT22;38248;52.722;6.734;2022-08-04T15:30:06;28.00;89.60
52305;DHT22;38248;52.722;6.734;2022-08-04T15:32:38;27.70;89.10
52305;DHT22;38248;52.722;6.734;2022-08-04T15:35:08;27.50;89.40
52305;DHT22;38248;52.722;6.734;2022-08-04T15:37:58;27.20;89.80
52305;DHT22;38248;52.722;6.734;2022-08-04T15:45:54;28.00;90.00
52305;DHT22;38248;52.722;6.734;2022-08-04T15:48:23;28.20;88.90
52305;DHT22;38248;52.722;6.734;2022-08-04T15:53:23;27.70;88.50
52305;DHT22;38248;52.722;6.734;2022-08-04T15:55:48;27.60;88.60
52305;DHT22;38248;52.722;6.734;2022-08-04T15:58:15;27.20;88.20
52305;DHT22;38248;52.722;6.734;2022-08-04T16:05:59;26.90;88.30
52305;DHT22;38248;52.722;6.734;2022-08-04T16:08:25;26.90;89.30
52305;DHT22;38248;52.722;6.734;2022-08-04T16:10:51;26.90;87.80
52305;DHT22;38248;52.722;6.734;2022-08-04T16:13:21;26.80;87.60
52305;DHT22;38248;52.722;6.734;2022-08-04T16:15:52;26.70;87.50
52305;DHT22;38248;52.722;6.734;2022-08-04T16:18:36;26.60;88.20
52305;DHT22;38248;52.722;6.734;2022-08-04T16:21:05;26.50;88.20
52305;DHT22;38248;52.722;6.734;2022-08-04T16:29:04;26.40;89.00
52305;DHT22;38248;52.722;6.734;2022-08-04T16:37:15;26.20;87.20
52305;DHT22;38248;52.722;6.734;2022-08-04T16:39:43;26.10;88.20
52305;DHT22;38248;52.722;6.734;2022-08-04T16:45:02;26.10;88.60
52305;DHT22;38248;52.722;6.734;2022-08-04T16:50:12;25.80;88.10
52305;DHT22;38248;52.722;6.734;2022-08-04T16:52:46;25.80;88.20
52305;DHT22;38248;52.722;6.734;2022-08-04T16:55:14;25.60;88.50
52305;DHT22;38248;52.722;6.734;2022-08-04T16:57:40;25.40;88.30
52305;DHT22;38248;52.722;6.734;2022-08-04T17:00:06;25.30;88.80
52305;DHT22;38248;52.722;6.734;2022-08-04T17:02:33;25.20;88.90
52305;DHT22;38248;52.722;6.734;2022-08-04T17:05:02;25.00;89.10
52305;DHT22;38248;52.722;6.734;2022-08-04T17:07:27;24.90;89.50
52305;DHT22;38248;52.722;6.734;2022-08-04T17:09:53;24.80;90.00
52305;DHT22;38248;52.722;6.734;2022-08-04T17:12:27;24.70;90.20
52305;DHT22;38248;52.722;6.734;2022-08-04T17:14:52;24.70;90.20
52305;DHT22;38248;52.722;6.734;2022-08-04T17:17:21;24.50;90.50
52305;DHT22;38248;52.722;6.734;2022-08-04T17:19:51;24.50;90.70
52305;DHT22;38248;52.722;6.734;2022-08-04T17:22:18;24.30;91.10
52305;DHT22;38248;52.722;6.734;2022-08-04T17:24:44;24.40;91.30
52305;DHT22;38248;52.722;6.734;2022-08-04T17:27:10;24.30;91.50
52305;DHT22;38248;52.722;6.734;2022-08-04T17:29:35;24.30;91.80
52305;DHT22;38248;52.722;6.734;2022-08-04T17:32:02;24.30;91.70
52305;DHT22;38248;52.722;6.734;2022-08-04T17:34:28;24.30;91.90
52305;DHT22;38248;52.722;6.734;2022-08-04T17:36:54;24.30;92.10
52305;DHT22;38248;52.722;6.734;2022-08-04T17:39:20;24.20;92.50
52305;DHT22;38248;52.722;6.734;2022-08-04T17:41:54;24.10;92.60
52305;DHT22;38248;52.722;6.734;2022-08-04T17:44:20;24.00;93.00
52305;DHT22;38248;52.722;6.734;2022-08-04T17:46:46;23.90;93.10
52305;DHT22;38248;52.722;6.734;2022-08-04T17:51:47;24.00;93.20
52305;DHT22;38248;52.722;6.734;2022-08-04T17:54:29;24.00;93.20
52305;DHT22;38248;52.722;6.734;2022-08-04T17:57:00;24.10;92.90
52305;DHT22;38248;52.722;6.734;2022-08-04T17:59:28;24.10;92.80
52305;DHT22;38248;52.722;6.734;2022-08-04T18:02:00;24.10;93.10
52305;DHT22;38248;52.722;6.734;2022-08-04T18:07:04;24.00;93.00
52305;DHT22;38248;52.722;6.734;2022-08-04T18:09:34;23.80;93.00
52305;DHT22;38248;52.722;6.734;2022-08-04T18:12:04;23.60;92.80
52305;DHT22;38248;52.722;6.734;2022-08-04T18:14:45;23.40;93.00
52305;DHT22;38248;52.722;6.734;2022-08-04T18:17:12;23.30;93.30
52305;DHT22;38248;52.722;6.734;2022-08-04T18:19:48;23.10;93.60
52305;DHT22;38248;52.722;6.734;2022-08-04T18:22:15;23.00;93.80
52305;DHT22;38248;52.722;6.734;2022-08-04T18:24:41;22.90;94.10
52305;DHT22;38248;52.722;6.734;2022-08-04T18:27:06;22.90;94.40
52305;DHT22;38248;52.722;6.734;2022-08-04T18:29:33;23.00;94.40
52305;DHT22;38248;52.722;6.734;2022-08-04T18:31:58;23.00;94.40
52305;DHT22;38248;52.722;6.734;2022-08-04T18:34:24;23.00;94.50
52305;DHT22;38248;52.722;6.734;2022-08-04T18:36:50;22.90;94.70
52305;DHT22;38248;52.722;6.734;2022-08-04T18:39:15;22.90;94.80
52305;DHT22;38248;52.722;6.734;2022-08-04T18:41:42;22.80;94.70
52305;DHT22;38248;52.722;6.734;2022-08-04T18:44:08;22.80;94.60
52305;DHT22;38248;52.722;6.734;2022-08-04T18:46:34;22.70;94.70
52305;DHT22;38248;52.722;6.734;2022-08-04T18:48:59;22.60;94.60
52305;DHT22;38248;52.722;6.734;2022-08-04T18:51:25;22.50;94.70
52305;DHT22;38248;52.722;6.734;2022-08-04T18:53:51;22.40;94.80
52305;DHT22;38248;52.722;6.734;2022-08-04T18:56:17;22.40;94.80
52305;DHT22;38248;52.722;6.734;2022-08-04T18:58:43;22.30;94.90
52305;DHT22;38248;52.722;6.734;2022-08-04T19:01:09;22.20;95.10
52305;DHT22;38248;52.722;6.734;2022-08-04T19:03:36;22.10;95.10
52305;DHT22;38248;52.722;6.734;2022-08-04T19:06:02;22.00;95.30
52305;DHT22;38248;52.722;6.734;2022-08-04T19:08:31;21.90;95.60
52305;DHT22;38248;52.722;6.734;2022-08-04T19:10:57;21.90;95.70
52305;DHT22;38248;52.722;6.734;2022-08-04T19:13:24;21.80;96.10
52305;DHT22;38248;52.722;6.734;2022-08-04T19:15:49;21.70;96.70
52305;DHT22;38248;52.722;6.734;2022-08-04T19:18:15;21.60;96.70
52305;DHT22;38248;52.722;6.734;2022-08-04T19:20:41;21.60;97.40
52305;DHT22;38248;52.722;6.734;2022-08-04T19:23:06;21.50;97.60
52305;DHT22;38248;52.722;6.734;2022-08-04T19:25:32;21.40;98.40
52305;DHT22;38248;52.722;6.734;2022-08-04T19:27:57;21.30;98.30
52305;DHT22;38248;52.722;6.734;2022-08-04T19:30:23;21.30;98.20
52305;DHT22;38248;52.722;6.734;2022-08-04T19:32:49;21.10;98.30
52305;DHT22;38248;52.722;6.734;2022-08-04T19:35:14;21.10;98.20
52305;DHT22;38248;52.722;6.734;2022-08-04T19:37:40;21.10;98.40
52305;DHT22;38248;52.722;6.734;2022-08-04T19:40:07;21.00;98.10
52305;DHT22;38248;52.722;6.734;2022-08-04T19:42:34;20.90;98.20
52305;DHT22;38248;52.722;6.734;2022-08-04T19:45:00;20.90;98.60
52305;DHT22;38248;52.722;6.734;2022-08-04T19:47:26;20.80;99.20
52305;DHT22;38248;52.722;6.734;2022-08-04T19:49:51;20.80;99.10
52305;DHT22;38248;52.722;6.734;2022-08-04T19:52:18;20.70;99.50
52305;DHT22;38248;52.722;6.734;2022-08-04T19:54:44;20.70;99.70
52305;DHT22;38248;52.722;6.734;2022-08-04T19:57:09;20.60;99.90
52305;DHT22;38248;52.722;6.734;2022-08-04T19:59:35;20.60;99.90
52305;DHT22;38248;52.722;6.734;2022-08-04T20:02:00;20.50;99.90
52305;DHT22;38248;52.722;6.734;2022-08-04T20:04:26;20.50;99.90
52305;DHT22;38248;52.722;6.734;2022-08-04T20:06:53;20.40;99.90
52305;DHT22;38248;52.722;6.734;2022-08-04T20:09:19;20.30;99.90
52305;DHT22;38248;52.722;6.734;2022-08-04T20:11:45;20.30;99.90